Time;durP1;ratioP1;P1;durP2;ratioP2;P2;SDS_P1;SDS_P2;PMS_P1;PMS_P2;Temp;Humidity;BMP_temperature;BMP_pressure;BME280_temperature;BME280_humidity;BME280_pressure;Samples;Min_cycle;Max_cycle;Signal;HPM_P1;HPM_P2
2023/08/05 00:01:48;;;;;;;1.98;1.58;;;15.40;99.90;;;;;;5028674;28;20052;-65
2023/08/05 00:04:20;;;;;;;2.63;1.83;;;15.40;99.90;;;;;;5047712;28;20044;-65
2023/08/05 00:06:47;;;;;;;2.70;1.60;;;15.40;99.90;;;;;;5033147;28;20045;-65
2023/08/05 00:09:19;;;;;;;2.45;1.67;;;15.30;99.90;;;;;;5042397;28;20042;-65
2023/08/05 00:11:50;;;;;;;2.78;1.73;;;15.30;99.90;;;;;;5046510;28;20045;-65
2023/08/05 00:14:17;;;;;;;4.20;1.60;;;15.30;99.90;;;;;;5032802;28;20416;-65
2023/08/05 00:16:44;;;;;;;2.72;1.73;;;15.30;99.90;;;;;;5041705;28;20086;-65
2023/08/05 00:19:11;;;;;;;3.35;1.77;;;15.30;99.90;;;;;;5030782;28;20100;-65
2023/08/05 00:21:43;;;;;;;3.13;1.95;;;15.20;99.90;;;;;;5040382;28;20032;-65
2023/08/05 00:24:15;;;;;;;2.40;1.60;;;15.20;99.90;;;;;;5039729;28;20048;-65
2023/08/05 00:26:47;;;;;;;3.22;1.73;;;15.20;99.90;;;;;;5030239;28;20044;-65
2023/08/05 00:29:19;;;;;;;2.10;1.60;;;15.20;99.90;;;;;;5030369;28;20040;-65
2023/08/05 00:31:50;;;;;;;2.95;1.77;;;15.20;99.90;;;;;;5025261;28;20055;-65
2023/08/05 00:34:22;;;;;;;2.60;1.98;;;15.10;99.90;;;;;;5020571;28;20084;-65
2023/08/05 00:36:54;;;;;;;4.05;2.00;;;15.10;99.90;;;;;;5047935;28;20424;-65
2023/08/05 00:39:25;;;;;;;4.78;1.95;;;15.20;99.90;;;;;;5034959;28;20076;-65
2023/08/05 00:41:57;;;;;;;3.35;2.28;;;15.10;99.90;;;;;;5033906;28;20129;-65
2023/08/05 00:44:30;;;;;;;3.22;1.88;;;15.20;99.90;;;;;;5031141;28;20041;-65
2023/08/05 00:47:02;;;;;;;2.78;2.35;;;15.10;99.90;;;;;;5024604;28;20044;-64
2023/08/05 00:49:35;;;;;;;4.45;2.25;;;15.10;99.90;;;;;;5032913;28;20037;-65
2023/08/05 00:52:07;;;;;;;4.82;2.58;;;15.10;99.90;;;;;;5040765;28;20060;-65
2023/08/05 00:54:40;;;;;;;3.35;2.97;;;15.10;99.90;;;;;;5025011;28;20047;-64
2023/08/05 00:57:12;;;;;;;3.63;3.30;;;15.10;99.90;;;;;;5013003;28;20049;-64
2023/08/05 00:59:44;;;;;;;4.30;3.30;;;15.10;99.90;;;;;;5039165;28;20289;-65
2023/08/05 01:02:16;;;;;;;3.25;2.90;;;15.10;99.90;;;;;;5042438;28;20068;-64
2023/08/05 01:04:43;;;;;;;4.82;3.15;;;15.10;99.90;;;;;;5032238;28;20055;-65
2023/08/05 01:07:11;;;;;;;4.13;3.50;;;15.10;99.90;;;;;;5035340;28;20110;-65
2023/08/05 01:09:38;;;;;;;6.75;3.80;;;15.10;99.90;;;;;;5028514;28;20041;-65
2023/08/05 01:12:10;;;;;;;5.88;3.22;;;15.10;99.90;;;;;;5029653;28;20040;-65
2023/08/05 01:14:41;;;;;;;4.00;3.53;;;15.10;99.90;;;;;;5025734;28;20045;-65
2023/08/05 01:17:13;;;;;;;4.25;2.92;;;15.10;99.90;;;;;;5025466;28;20052;-65
2023/08/05 01:19:46;;;;;;;3.78;3.22;;;15.10;99.90;;;;;;5039318;28;20052;-66
2023/08/05 01:22:30;;;;;;;4.63;3.22;;;15.10;99.90;;;;;;5035425;28;20107;-65
2023/08/05 01:25:18;;;;;;;4.85;3.33;;;15.10;99.90;;;;;;5038382;28;20057;-65
2023/08/05 01:27:50;;;;;;;3.83;3.38;;;15.10;99.90;;;;;;5041498;28;20052;-65
2023/08/05 01:30:24;;;;;;;5.82;3.28;;;15.00;99.90;;;;;;5029896;28;20119;-65
2023/08/05 01:33:00;;;;;;;3.67;3.00;;;15.00;99.90;;;;;;5021157;28;20115;-65
2023/08/05 01:35:32;;;;;;;4.70;3.08;;;15.00;99.90;;;;;;5022213;28;20052;-65
2023/08/05 01:37:59;;;;;;;3.45;2.85;;;15.00;99.90;;;;;;5030289;28;20620;-65
2023/08/05 01:40:32;;;;;;;5.45;3.58;;;15.00;99.90;;;;;;5025274;28;20055;-65
2023/08/05 01:43:04;;;;;;;3.67;2.90;;;15.00;99.90;;;;;;5029737;28;20041;-65
2023/08/05 01:45:35;;;;;;;3.60;3.15;;;15.00;99.90;;;;;;5012474;28;20099;-65
2023/08/05 01:48:07;;;;;;;5.47;3.67;;;14.90;99.90;;;;;;5031491;28;20042;-65
2023/08/05 01:50:39;;;;;;;4.18;3.15;;;14.90;99.90;;;;;;5023521;28;20052;-65
2023/08/05 01:53:11;;;;;;;4.50;3.10;;;14.90;99.90;;;;;;5040552;28;20049;-65
2023/08/05 01:55:38;;;;;;;3.70;3.28;;;14.90;99.90;;;;;;5030913;28;20064;-65
2023/08/05 01:58:09;;;;;;;4.40;3.05;;;14.90;99.90;;;;;;5023237;28;20510;-65
2023/08/05 02:00:50;;;;;;;4.43;2.92;;;14.90;99.90;;;;;;5031761;28;20045;-65
2023/08/05 02:03:17;;;;;;;3.35;3.05;;;14.90;99.90;;;;;;5024302;28;20183;-65
2023/08/05 02:05:48;;;;;;;3.85;3.10;;;14.90;99.90;;;;;;5027961;28;20087;-65
2023/08/05 02:08:20;;;;;;;4.07;2.90;;;14.90;99.90;;;;;;5002841;28;20053;-65
2023/08/05 02:10:52;;;;;;;4.18;2.97;;;14.90;99.90;;;;;;5025506;28;20052;-65
2023/08/05 02:13:24;;;;;;;4.03;2.60;;;14.90;99.90;;;;;;5026923;28;20060;-65
2023/08/05 02:15:56;;;;;;;4.05;3.05;;;14.90;99.90;;;;;;5029726;28;20421;-65
2023/08/05 02:18:23;;;;;;;3.47;3.17;;;14.80;99.90;;;;;;5040209;28;20136;-65
2023/08/05 02:20:54;;;;;;;5.65;3.28;;;14.80;99.90;;;;;;5028892;28;20051;-65
2023/08/05 02:23:26;;;;;;;5.45;3.85;;;14.80;99.90;;;;;;5040511;28;20470;-65
2023/08/05 02:26:01;;;;;;;4.68;4.05;;;14.80;99.90;;;;;;5028612;28;20063;-65
2023/08/05 02:28:27;;;;;;;4.97;3.58;;;14.80;99.90;;;;;;5031686;28;20057;-65
2023/08/05 02:30:59;;;;;;;5.70;3.70;;;14.80;99.90;;;;;;5028956;28;20041;-65
2023/08/05 02:33:31;;;;;;;4.00;3.50;;;14.80;99.90;;;;;;5017291;28;20581;-65
2023/08/05 02:36:04;;;;;;;5.97;3.72;;;14.90;99.90;;;;;;5018949;28;20417;-65
2023/08/05 02:38:36;;;;;;;6.28;3.70;;;14.90;99.90;;;;;;5034645;28;20053;-65
2023/08/05 02:41:08;;;;;;;6.88;4.85;;;14.90;99.90;;;;;;5028035;28;20064;-65
2023/08/05 02:43:44;;;;;;;4.75;3.85;;;14.90;99.90;;;;;;5033458;28;20488;-66
2023/08/05 02:46:11;;;;;;;5.63;4.05;;;15.00;99.90;;;;;;5044243;28;20120;-65
2023/08/05 02:48:38;;;;;;;5.13;4.00;;;14.90;99.90;;;;;;5033854;28;20037;-65
2023/08/05 02:51:10;;;;;;;5.95;4.30;;;14.90;99.90;;;;;;5029461;28;20044;-65
2023/08/05 02:53:37;;;;;;;6.50;4.38;;;15.00;99.90;;;;;;5032765;28;20041;-66
2023/08/05 02:56:09;;;;;;;4.30;3.80;;;14.90;99.90;;;;;;5017115;28;20061;-65
2023/08/05 02:58:40;;;;;;;6.10;4.85;;;14.90;99.90;;;;;;5034476;28;20550;-66
2023/08/05 03:01:12;;;;;;;9.57;4.90;;;14.90;99.90;;;;;;5030309;28;20563;-65
2023/08/05 03:03:46;;;;;;;5.93;4.63;;;14.90;99.90;;;;;;5034340;28;20099;-65
2023/08/05 03:06:18;;;;;;;6.33;5.13;;;14.90;99.90;;;;;;5044831;28;20064;-65
2023/08/05 03:08:45;;;;;;;5.32;4.32;;;14.90;99.90;;;;;;5046546;28;20129;-65
2023/08/05 03:11:12;;;;;;;7.03;4.78;;;14.90;99.90;;;;;;5030991;28;20052;-65
2023/08/05 03:13:44;;;;;;;4.35;3.90;;;14.90;99.90;;;;;;5025014;28;20063;-65
2023/08/05 03:16:16;;;;;;;6.95;4.45;;;14.90;99.90;;;;;;5020032;28;20049;-65
2023/08/05 03:18:57;;;;;;;7.47;4.53;;;14.90;99.90;;;;;;5016469;28;20049;-65
2023/08/05 03:21:31;;;;;;;;;;;14.90;99.90;;;;;;5030516;28;20532;-65
2023/08/05 03:24:03;;;;;;;5.00;4.45;;;14.90;99.90;;;;;;5033493;28;20404;-65
2023/08/05 03:26:37;;;;;;;6.95;4.32;;;14.90;99.90;;;;;;5034202;28;20401;-65
2023/08/05 03:29:12;;;;;;;6.43;4.68;;;14.90;99.90;;;;;;5016738;28;20064;-65
2023/08/05 03:31:39;;;;;;;6.57;4.78;;;14.90;99.90;;;;;;5033073;28;20474;-65
2023/08/05 03:34:11;;;;;;;10.52;5.15;;;14.90;99.90;;;;;;5042934;28;20128;-65
2023/08/05 03:36:43;;;;;;;6.13;4.82;;;14.90;99.90;;;;;;5025839;28;20038;-65
2023/08/05 03:39:15;;;;;;;6.15;5.00;;;14.90;99.90;;;;;;5038482;28;20118;-65
2023/08/05 03:41:47;;;;;;;7.60;5.38;;;14.80;99.90;;;;;;5032175;28;20033;-65
2023/08/05 03:44:14;;;;;;;7.70;5.20;;;14.80;99.90;;;;;;5031303;28;20401;-65
2023/08/05 03:46:46;;;;;;;9.25;5.13;;;14.90;99.90;;;;;;5048554;28;20044;-66
2023/08/05 03:49:18;;;;;;;8.05;5.22;;;14.80;99.90;;;;;;5027661;28;20040;-65
2023/08/05 03:51:46;;;;;;;6.63;5.25;;;14.80;99.90;;;;;;5033700;28;20055;-65
2023/08/05 03:54:18;;;;;;;5.82;4.65;;;14.80;99.90;;;;;;5013962;28;20124;-65
2023/08/05 03:56:51;;;;;;;7.18;5.65;;;14.80;99.90;;;;;;5039992;28;20103;-65
2023/08/05 03:59:23;;;;;;;8.98;6.25;;;14.80;99.90;;;;;;5023322;28;20057;-65
2023/08/05 04:01:57;;;;;;;6.60;5.15;;;14.80;99.90;;;;;;5015216;28;20042;-65
2023/08/05 04:04:29;;;;;;;8.00;5.50;;;14.90;99.90;;;;;;5031310;28;20041;-65
2023/08/05 04:07:00;;;;;;;6.15;5.35;;;14.90;99.90;;;;;;5025169;28;20033;-65
2023/08/05 04:09:32;;;;;;;9.00;7.05;;;14.80;99.90;;;;;;5041310;28;20029;-65
2023/08/05 04:12:03;;;;;;;10.48;7.15;;;14.80;99.90;;;;;;5044886;28;20029;-65
2023/08/05 04:14:37;;;;;;;10.32;6.60;;;14.80;99.90;;;;;;5026216;28;20560;-65
2023/08/05 04:17:12;;;;;;;8.52;6.82;;;14.80;99.90;;;;;;5031479;28;20068;-65
2023/08/05 04:19:39;;;;;;;10.15;7.45;;;14.80;99.90;;;;;;5032674;28;20047;-65
2023/08/05 04:22:12;;;;;;;8.82;6.43;;;14.90;99.90;;;;;;5024885;28;20051;-65
2023/08/05 04:24:45;;;;;;;9.30;5.85;;;14.90;99.90;;;;;;5032988;28;20045;-65
2023/08/05 04:27:17;;;;;;;9.88;6.55;;;14.90;99.90;;;;;;5037328;28;20038;-65
2023/08/05 04:29:49;;;;;;;11.50;7.68;;;15.00;99.90;;;;;;5031503;28;20041;-65
2023/08/05 04:32:21;;;;;;;8.07;6.38;;;15.00;99.90;;;;;;5040678;28;20060;-66
2023/08/05 04:34:53;;;;;;;9.90;6.82;;;15.00;99.90;;;;;;5016417;28;20056;-65
2023/08/05 04:37:26;;;;;;;6.93;6.18;;;15.00;99.90;;;;;;5042015;28;20053;-65
2023/08/05 04:39:58;;;;;;;8.63;6.75;;;15.10;99.90;;;;;;5027705;28;20036;-65
2023/08/05 04:42:29;;;;;;;10.75;7.97;;;15.10;99.90;;;;;;5032182;28;20044;-65
2023/08/05 04:45:01;;;;;;;7.78;6.20;;;15.10;99.90;;;;;;5039863;28;20044;-65
2023/08/05 04:47:33;;;;;;;11.32;7.07;;;15.10;99.90;;;;;;5030309;28;20118;-65
2023/08/05 04:50:05;;;;;;;11.20;7.70;;;15.00;99.90;;;;;;5036137;28;20049;-65
2023/08/05 04:52:39;;;;;;;10.00;6.22;;;15.00;99.90;;;;;;5039113;28;20084;-65
2023/08/05 04:55:11;;;;;;;;;;;15.10;99.90;;;;;;5037578;28;20087;-65
2023/08/05 04:57:45;;;;;;;9.45;7.25;;;15.00;99.90;;;;;;5044749;28;20305;-65
2023/08/05 05:00:18;;;;;;;10.27;6.43;;;15.10;99.90;;;;;;5029497;28;20049;-65
2023/08/05 05:02:49;;;;;;;10.57;6.70;;;15.10;99.90;;;;;;5031926;28;20041;-65
2023/08/05 05:05:21;;;;;;;10.55;6.15;;;15.00;99.90;;;;;;5032745;28;20435;-65
2023/08/05 05:07:53;;;;;;;9.48;6.97;;;15.00;99.90;;;;;;5044957;28;20061;-65
2023/08/05 05:10:25;;;;;;;8.57;6.38;;;15.00;99.90;;;;;;5027073;28;20517;-65
2023/08/05 05:12:58;;;;;;;10.95;6.88;;;15.00;99.90;;;;;;5025268;28;20158;-65
2023/08/05 05:15:24;;;;;;;13.50;6.70;;;15.00;99.90;;;;;;5037183;28;20065;-65
2023/08/05 05:17:56;;;;;;;8.80;6.38;;;15.00;99.90;;;;;;5040350;28;20422;-65
2023/08/05 05:20:29;;;;;;;8.73;6.78;;;15.00;99.90;;;;;;5030452;28;20108;-65
2023/08/05 05:23:00;;;;;;;8.25;7.13;;;15.00;99.90;;;;;;5031023;28;20043;-65
2023/08/05 05:25:32;;;;;;;13.48;7.25;;;15.10;99.90;;;;;;5039051;28;20040;-65
2023/08/05 05:27:59;;;;;;;10.18;6.47;;;15.10;99.90;;;;;;5031011;28;20061;-64
2023/08/05 05:30:30;;;;;;;9.18;7.32;;;15.10;99.90;;;;;;5041997;28;20039;-65
2023/08/05 05:33:03;;;;;;;9.35;6.93;;;15.10;99.90;;;;;;5040646;28;20106;-65
2023/08/05 05:35:35;;;;;;;11.38;6.93;;;15.10;99.90;;;;;;5038493;28;20037;-65
2023/08/05 05:38:06;;;;;;;7.47;5.70;;;15.20;99.90;;;;;;5041641;28;20386;-65
2023/08/05 05:40:41;;;;;;;8.48;6.80;;;15.20;99.90;;;;;;5035899;28;20497;-65
2023/08/05 05:43:13;;;;;;;9.07;6.97;;;15.20;99.90;;;;;;5041357;28;20087;-65
2023/08/05 05:45:46;;;;;;;7.63;6.50;;;15.30;99.90;;;;;;5042361;28;20620;-65
2023/08/05 05:48:18;;;;;;;8.77;6.43;;;15.30;99.90;;;;;;5038281;28;20112;-65
2023/08/05 05:50:53;;;;;;;10.15;7.35;;;15.40;99.90;;;;;;5035337;28;20422;-65
2023/08/05 05:53:25;;;;;;;9.15;6.05;;;15.40;99.90;;;;;;5094526;22;20055;-66
2023/08/05 05:55:56;;;;;;;10.45;6.65;;;15.40;99.90;;;;;;5095545;28;20121;-66
2023/08/05 05:58:28;;;;;;;9.02;6.43;;;15.40;99.90;;;;;;5074427;28;20527;-66
2023/08/05 06:00:56;;;;;;;9.10;6.57;;;15.40;99.90;;;;;;5096185;28;20064;-66
2023/08/05 06:03:22;;;;;;;10.07;7.60;;;15.40;99.90;;;;;;5088231;28;20508;-66
2023/08/05 06:05:58;;;;;;;8.73;6.80;;;15.40;99.90;;;;;;5085445;28;20127;-66
2023/08/05 06:08:30;;;;;;;8.48;6.55;;;15.40;99.90;;;;;;5086651;28;20407;-66
2023/08/05 06:11:03;;;;;;;7.32;6.47;;;15.50;99.90;;;;;;5082068;28;20044;-66
2023/08/05 06:13:35;;;;;;;8.18;6.28;;;15.50;99.90;;;;;;5079868;28;20150;-66
2023/08/05 06:16:06;;;;;;;8.32;6.70;;;15.50;99.90;;;;;;5086708;28;20105;-65
2023/08/05 06:18:38;;;;;;;8.50;6.13;;;15.50;99.90;;;;;;5068666;28;20052;-66
2023/08/05 06:21:05;;;;;;;9.00;6.28;;;15.50;99.90;;;;;;5075533;28;20032;-66
2023/08/05 06:23:32;;;;;;;9.00;6.55;;;15.60;99.90;;;;;;5082606;28;20496;-66
2023/08/05 06:26:04;;;;;;;8.00;6.20;;;15.60;99.90;;;;;;5085131;28;20031;-66
2023/08/05 06:28:36;;;;;;;8.85;6.25;;;15.60;99.90;;;;;;5084091;28;20735;-65
2023/08/05 06:31:08;;;;;;;8.98;6.38;;;15.60;99.90;;;;;;5074894;28;20066;-66
2023/08/05 06:33:39;;;;;;;12.13;8.50;;;15.60;99.90;;;;;;5083735;28;20039;-66
2023/08/05 06:36:11;;;;;;;10.68;6.55;;;15.60;99.90;;;;;;5072792;28;20040;-65
2023/08/05 06:38:43;;;;;;;8.25;6.03;;;15.60;99.90;;;;;;5076975;28;20043;-66
2023/08/05 06:41:15;;;;;;;7.72;6.22;;;15.60;99.90;;;;;;5060771;28;20040;-66
2023/08/05 06:43:47;;;;;;;8.95;6.53;;;15.60;99.90;;;;;;5083576;28;20044;-66
2023/08/05 06:46:19;;;;;;;15.48;7.93;;;15.70;99.90;;;;;;5083259;28;20519;-65
2023/08/05 06:48:51;;;;;;;8.38;6.40;;;15.70;99.90;;;;;;5073626;28;20616;-66
2023/08/05 06:51:23;;;;;;;8.70;6.68;;;15.70;99.90;;;;;;5072068;28;20082;-66
2023/08/05 06:53:55;;;;;;;7.05;5.80;;;15.70;99.90;;;;;;5068485;28;20040;-66
2023/08/05 06:56:27;;;;;;;8.18;6.13;;;15.80;99.90;;;;;;5082891;28;20037;-66
2023/08/05 06:58:54;;;;;;;7.57;5.57;;;15.80;99.90;;;;;;5075208;28;20051;-66
2023/08/05 07:01:26;;;;;;;8.73;6.75;;;15.80;99.90;;;;;;5072236;28;20086;-66
2023/08/05 07:03:58;;;;;;;8.48;6.70;;;15.80;99.90;;;;;;5075024;28;20050;-66
2023/08/05 07:06:30;;;;;;;9.30;5.80;;;15.80;99.90;;;;;;5085817;28;20028;-66
2023/08/05 07:09:03;;;;;;;8.93;6.20;;;15.80;99.90;;;;;;5085832;28;20036;-66
2023/08/05 07:11:35;;;;;;;;;;;15.80;99.90;;;;;;5068528;28;20119;-66
2023/08/05 07:14:07;;;;;;;10.70;6.20;;;15.80;99.90;;;;;;5082265;28;19958;-66
2023/08/05 07:16:39;;;;;;;10.88;6.10;;;15.90;99.90;;;;;;5071371;28;20063;-66
2023/08/05 07:19:07;;;;;;;9.65;6.50;;;15.90;99.90;;;;;;5083398;28;20040;-66
2023/08/05 07:21:34;;;;;;;11.38;7.10;;;15.90;99.90;;;;;;5072082;28;20386;-66
2023/08/05 07:24:06;;;;;;;10.30;6.75;;;15.90;99.90;;;;;;5060731;28;20036;-66
2023/08/05 07:26:37;;;;;;;9.10;6.55;;;15.80;99.90;;;;;;5065249;28;20064;-66
2023/08/05 07:29:09;;;;;;;9.77;6.32;;;15.80;99.90;;;;;;5083365;28;20047;-66
2023/08/05 07:31:41;;;;;;;8.45;5.90;;;15.80;99.90;;;;;;5070416;28;20136;-65
2023/08/05 07:34:14;;;;;;;9.50;6.85;;;15.80;99.90;;;;;;5086428;28;20043;-66
2023/08/05 07:36:46;;;;;;;11.25;7.05;;;15.80;99.90;;;;;;5086329;28;20054;-66
2023/08/05 07:39:12;;;;;;;10.27;6.88;;;15.80;99.90;;;;;;5086184;28;20042;-66
2023/08/05 07:41:44;;;;;;;8.00;6.40;;;15.80;99.90;;;;;;5083076;28;20120;-66
2023/08/05 07:44:12;;;;;;;7.10;6.28;;;15.90;99.90;;;;;;5080195;28;20233;-66
2023/08/05 07:46:47;;;;;;;8.00;6.90;;;15.90;99.90;;;;;;5076200;28;20040;-67
2023/08/05 07:49:19;;;;;;;9.63;7.25;;;15.90;99.90;;;;;;5081020;28;20119;-67
2023/08/05 07:51:53;;;;;;;8.13;6.72;;;15.90;99.90;;;;;;5087896;28;20415;-67
2023/08/05 07:54:26;;;;;;;9.77;6.47;;;15.90;99.90;;;;;;5083135;28;20024;-67
2023/08/05 07:56:58;;;;;;;11.63;7.53;;;16.00;99.90;;;;;;5084818;28;20083;-67
2023/08/05 07:59:30;;;;;;;7.43;5.60;;;16.00;99.90;;;;;;5072785;28;20043;-67
2023/08/05 08:02:02;;;;;;;14.57;6.75;;;16.10;99.90;;;;;;5085704;28;20040;-67
2023/08/05 08:04:32;;;;;;;7.95;6.25;;;16.00;99.90;;;;;;5062760;28;20037;-67
2023/08/05 08:07:04;;;;;;;10.30;6.40;;;16.00;99.90;;;;;;5083691;28;20064;-67
2023/08/05 08:09:37;;;;;;;11.32;6.47;;;16.10;99.90;;;;;;5071311;28;20492;-67
2023/08/05 08:12:09;;;;;;;7.57;6.00;;;16.10;99.90;;;;;;5077115;28;20259;-67
2023/08/05 08:14:41;;;;;;;9.07;6.47;;;16.20;99.90;;;;;;5085815;28;20040;-67
2023/08/05 08:17:13;;;;;;;7.03;5.60;;;16.20;99.90;;;;;;5071937;28;20557;-67
2023/08/05 08:19:40;;;;;;;6.85;5.88;;;16.20;99.90;;;;;;5069909;28;20119;-67
2023/08/05 08:22:12;;;;;;;7.10;5.95;;;16.30;99.90;;;;;;5072562;28;20044;-67
2023/08/05 08:24:39;;;;;;;6.85;5.70;;;16.30;99.90;;;;;;5091566;28;20045;-67
2023/08/05 08:27:10;;;;;;;9.38;5.68;;;16.40;99.90;;;;;;5087269;28;20511;-67
2023/08/05 08:29:42;;;;;;;9.10;6.18;;;16.40;99.90;;;;;;5071373;28;20037;-66
2023/08/05 08:32:14;;;;;;;9.95;5.93;;;16.40;99.90;;;;;;5070608;28;20044;-67
2023/08/05 08:34:46;;;;;;;10.25;6.30;;;16.50;99.90;;;;;;5075265;28;20124;-67
2023/08/05 08:37:18;;;;;;;7.68;6.20;;;16.60;99.90;;;;;;5071258;28;20494;-67
2023/08/05 08:39:50;;;;;;;7.85;5.95;;;16.70;99.90;;;;;;5085400;28;20052;-66
2023/08/05 08:42:24;;;;;;;7.85;5.80;;;16.70;99.90;;;;;;5069039;28;20063;-67
2023/08/05 08:44:56;;;;;;;12.02;6.05;;;16.80;99.90;;;;;;5064145;28;20052;-67
2023/08/05 08:47:24;;;;;;;7.82;5.90;;;16.80;99.90;;;;;;5082230;28;20036;-67
2023/08/05 08:49:57;;;;;;;13.10;6.80;;;17.00;99.90;;;;;;5078377;28;20037;-68
2023/08/05 08:52:30;;;;;;;6.38;5.35;;;17.10;99.90;;;;;;5067582;28;20040;-67
2023/08/05 08:55:03;;;;;;;9.30;5.70;;;17.20;99.90;;;;;;5078347;28;20156;-67
2023/08/05 08:57:35;;;;;;;7.77;5.67;;;17.20;99.90;;;;;;5074248;28;20060;-67
2023/08/05 09:00:02;;;;;;;6.95;4.65;;;17.30;99.90;;;;;;5070832;28;20047;-67
2023/08/05 09:02:35;;;;;;;7.57;5.57;;;17.30;99.90;;;;;;5082322;28;20070;-67
2023/08/05 09:05:08;;;;;;;7.47;5.35;;;17.50;99.90;;;;;;5083081;28;20040;-67
2023/08/05 09:07:40;;;;;;;8.73;5.07;;;17.50;99.90;;;;;;5084847;28;20610;-67
2023/08/05 09:10:12;;;;;;;6.20;5.40;;;17.60;99.90;;;;;;5082159;28;20046;-67
2023/08/05 09:12:44;;;;;;;6.78;5.20;;;17.50;99.90;;;;;;5086867;28;20040;-67
2023/08/05 09:15:15;;;;;;;8.15;4.82;;;17.60;99.90;;;;;;5081142;28;20039;-67
2023/08/05 09:17:46;;;;;;;7.18;5.40;;;17.60;99.90;;;;;;5070924;28;20416;-67
2023/08/05 09:20:22;;;;;;;8.82;5.20;;;17.60;99.90;;;;;;5060114;28;20561;-67
2023/08/05 09:22:55;;;;;;;8.60;5.53;;;17.70;99.90;;;;;;5061422;28;20058;-67
2023/08/05 09:25:30;;;;;;;7.07;5.70;;;17.70;99.90;;;;;;5082117;28;20036;-67
2023/08/05 09:28:01;;;;;;;7.68;4.82;;;17.80;99.90;;;;;;5070095;28;20040;-67
2023/08/05 09:30:34;;;;;;;6.32;5.10;;;17.80;99.90;;;;;;5063423;28;20040;-66
2023/08/05 09:33:02;;;;;;;6.32;4.55;;;17.90;99.90;;;;;;5068814;28;20040;-67
2023/08/05 09:35:29;;;;;;;6.63;4.70;;;17.90;99.90;;;;;;5085677;28;20036;-67
2023/08/05 09:37:57;;;;;;;6.85;4.95;;;17.90;99.90;;;;;;5067776;28;20460;-67
2023/08/05 09:40:26;;;;;;;6.47;5.05;;;18.00;99.90;;;;;;5079513;28;20124;-67
2023/08/05 09:42:59;;;;;;;6.68;4.78;;;18.00;99.90;;;;;;5077018;28;20044;-67
2023/08/05 09:45:32;;;;;;;5.82;4.80;;;18.00;99.90;;;;;;5080445;28;20036;-67
2023/08/05 09:48:10;;;;;;;5.82;4.47;;;18.10;99.90;;;;;;5079678;28;20504;-67
2023/08/05 09:50:43;;;;;;;10.85;4.65;;;18.00;99.90;;;;;;5083352;28;20118;-67
2023/08/05 09:53:19;;;;;;;7.40;4.85;;;18.00;99.90;;;;;;5067816;28;20048;-67
2023/08/05 09:55:52;;;;;;;6.80;4.40;;;18.00;99.90;;;;;;5069691;28;20048;-67
2023/08/05 09:58:24;;;;;;;4.75;4.22;;;18.00;99.90;;;;;;5082905;28;20058;-67
2023/08/05 10:00:56;;;;;;;7.07;4.78;;;18.00;99.90;;;;;;5083107;28;20127;-67
2023/08/05 10:03:28;;;;;;;5.85;4.18;;;18.10;99.90;;;;;;5067727;28;20036;-66
2023/08/05 10:06:02;;;;;;;4.75;4.22;;;18.20;99.90;;;;;;5076736;28;20512;-66
2023/08/05 10:08:40;;;;;;;7.65;4.72;;;18.20;99.90;;;;;;5076810;28;20029;-66
2023/08/05 10:11:08;;;;;;;6.38;4.53;;;18.20;99.90;;;;;;5079168;28;20117;-65
2023/08/05 10:13:42;;;;;;;5.10;4.27;;;18.30;99.90;;;;;;5070764;28;20051;-68
2023/08/05 10:16:15;;;;;;;4.90;4.50;;;18.30;99.90;;;;;;5082994;28;20368;-65
2023/08/05 10:18:42;;;;;;;5.53;4.57;;;18.40;99.90;;;;;;5067060;28;20502;-65
2023/08/05 10:21:42;;;;;;;4.75;3.58;;;18.50;99.90;;;;;;5079387;28;20044;-65
2023/08/05 10:24:17;;;;;;;4.90;4.22;;;18.70;99.90;;;;;;5089294;28;20040;-65
2023/08/05 10:26:49;;;;;;;5.78;4.30;;;18.90;99.90;;;;;;5061044;28;20396;-65
2023/08/05 10:29:30;;;;;;;5.05;4.43;;;19.00;99.90;;;;;;5077933;28;20028;-65
2023/08/05 10:32:10;;;;;;;5.22;4.20;;;19.00;99.90;;;;;;5077724;28;20635;-65
2023/08/05 10:34:42;;;;;;;6.20;3.97;;;19.00;99.90;;;;;;5080788;28;20063;-66
2023/08/05 10:37:13;;;;;;;5.15;4.60;;;19.10;99.90;;;;;;5084658;28;20407;-66
2023/08/05 10:39:45;;;;;;;5.40;4.28;;;19.10;99.90;;;;;;5080293;28;20040;-67
2023/08/05 10:42:27;;;;;;;5.97;3.92;;;19.10;99.90;;;;;;5082116;28;20043;-66
2023/08/05 10:45:00;;;;;;;7.10;4.35;;;19.30;99.90;;;;;;5072589;28;20099;-66
2023/08/05 10:47:27;;;;;;;3.47;3.17;;;19.30;99.90;;;;;;5057218;28;20040;-66
2023/08/05 10:50:00;;;;;;;7.20;4.05;;;19.20;99.90;;;;;;5083257;28;20068;-66
2023/08/05 10:52:36;;;;;;;7.97;3.78;;;19.20;99.90;;;;;;5082657;28;20126;-66
2023/08/05 10:55:12;;;;;;;5.18;3.50;;;19.50;99.90;;;;;;5085001;28;20114;-66
2023/08/05 10:57:45;;;;;;;5.82;3.40;;;19.80;99.90;;;;;;5083710;28;20037;-66
2023/08/05 11:00:20;;;;;;;6.10;3.63;;;19.90;99.90;;;;;;5068638;28;20451;-65
2023/08/05 11:02:49;;;;;;;5.07;3.85;;;20.10;99.90;;;;;;5083331;28;20128;-66
2023/08/05 11:05:23;;;;;;;4.03;3.63;;;20.30;99.90;;;;;;5083026;28;20040;-66
2023/08/05 11:07:55;;;;;;;5.22;3.25;;;20.40;99.90;;;;;;5079446;28;20041;-66
2023/08/05 11:10:22;;;;;;;3.47;3.10;;;20.40;99.90;;;;;;5077739;28;20038;-65
2023/08/05 11:12:54;;;;;;;4.65;2.92;;;20.30;99.90;;;;;;5067022;28;20424;-66
2023/08/05 11:15:26;;;;;;;4.75;2.80;;;20.30;99.90;;;;;;5079757;28;20059;-66
2023/08/05 11:17:58;;;;;;;3.80;3.25;;;20.20;99.90;;;;;;5063566;28;20051;-65
2023/08/05 11:20:34;;;;;;;5.63;2.97;;;20.10;99.90;;;;;;5084442;28;20044;-66
2023/08/05 11:23:01;;;;;;;3.88;3.20;;;20.10;99.90;;;;;;5083992;28;20500;-64
2023/08/05 11:25:33;;;;;;;3.40;3.10;;;20.00;99.90;;;;;;5074146;28;20131;-64
2023/08/05 11:28:01;;;;;;;4.55;3.38;;;19.80;99.90;;;;;;5082638;28;20039;-64
2023/08/05 11:30:38;;;;;;;5.97;3.58;;;19.60;99.90;;;;;;5085118;28;20195;-64
2023/08/05 11:33:10;;;;;;;4.53;3.15;;;19.60;99.90;;;;;;5075828;28;20044;-64
2023/08/05 11:35:46;;;;;;;6.93;3.63;;;19.60;99.90;;;;;;5080464;28;20072;-64
2023/08/05 11:38:19;;;;;;;5.43;3.65;;;19.50;99.90;;;;;;5087412;28;20441;-64
2023/08/05 11:40:53;;;;;;;4.95;3.92;;;19.50;99.90;;;;;;5085072;28;20119;-65
2023/08/05 11:43:25;;;;;;;4.95;3.80;;;19.40;99.90;;;;;;5073386;28;20468;-64
2023/08/05 11:45:57;;;;;;;5.90;4.35;;;19.40;99.90;;;;;;5084464;28;20038;-65
2023/08/05 11:48:29;;;;;;;4.13;3.47;;;19.30;99.90;;;;;;5071142;28;20039;-65
2023/08/05 11:51:04;;;;;;;5.47;3.78;;;19.30;99.90;;;;;;5075308;28;20052;-66
2023/08/05 11:53:35;;;;;;;4.22;3.80;;;19.10;99.90;;;;;;5071322;28;20040;-66
2023/08/05 11:56:02;;;;;;;7.10;4.07;;;19.10;99.90;;;;;;5072788;28;20058;-66
2023/08/05 11:58:32;;;;;;;5.70;4.72;;;19.00;99.90;;;;;;5075906;28;20040;-67
2023/08/05 12:01:04;;;;;;;4.63;4.05;;;19.00;99.90;;;;;;5075142;28;20043;-64
2023/08/05 12:03:32;;;;;;;4.50;4.03;;;19.00;99.90;;;;;;5086712;28;20037;-64
2023/08/05 12:06:05;;;;;;;5.60;3.97;;;19.10;99.90;;;;;;5087006;28;20496;-64
2023/08/05 12:08:42;;;;;;;;;;;19.00;99.90;;;;;;5087669;28;20044;-64
2023/08/05 12:11:13;;;;;;;4.13;3.72;;;19.00;99.90;;;;;;5092189;28;19974;-64
2023/08/05 12:13:45;;;;;;;6.03;3.70;;;19.00;99.90;;;;;;5063728;28;20060;-64
2023/08/05 12:16:17;;;;;;;4.15;3.45;;;19.10;99.90;;;;;;5067862;28;20531;-64
2023/08/05 12:18:49;;;;;;;4.35;3.17;;;19.20;99.90;;;;;;5083951;28;20075;-65
2023/08/05 12:21:21;;;;;;;4.38;3.25;;;19.20;99.90;;;;;;5081979;28;20040;-64
2023/08/05 12:23:53;;;;;;;4.72;3.10;;;19.20;99.90;;;;;;5085453;28;20043;-64
2023/08/05 12:26:25;;;;;;;5.10;3.22;;;19.20;99.90;;;;;;5085903;28;20032;-63
2023/08/05 12:28:57;;;;;;;5.72;3.60;;;19.30;99.90;;;;;;5081298;28;20040;-65
2023/08/05 12:31:31;;;;;;;5.63;3.45;;;19.40;99.90;;;;;;5086779;28;20055;-65
2023/08/05 12:33:58;;;;;;;3.17;2.80;;;19.60;99.90;;;;;;5085440;28;20135;-65
2023/08/05 12:36:29;;;;;;;5.72;3.08;;;19.60;99.90;;;;;;5083163;28;20040;-65
2023/08/05 12:39:01;;;;;;;3.35;3.05;;;19.70;99.90;;;;;;5081288;28;20554;-64
2023/08/05 12:41:33;;;;;;;5.97;2.72;;;19.90;99.90;;;;;;5095763;22;20040;-67
2023/08/05 12:44:05;;;;;;;3.85;3.40;;;20.10;99.90;;;;;;5083502;28;20055;-67
2023/08/05 12:46:32;;;;;;;4.53;2.65;;;20.30;99.90;;;;;;5087593;28;20595;-66
2023/08/05 12:49:04;;;;;;;4.50;2.90;;;20.40;99.90;;;;;;5078996;28;20051;-66
2023/08/05 12:51:31;;;;;;;4.18;2.90;;;20.40;99.90;;;;;;5086556;28;20040;-67
2023/08/05 12:54:03;;;;;;;3.60;3.30;;;20.40;99.90;;;;;;5058704;28;20048;-66
2023/08/05 12:56:34;;;;;;;3.45;3.15;;;20.50;99.90;;;;;;5078939;28;20040;-66
2023/08/05 12:59:06;;;;;;;3.40;2.75;;;20.60;99.90;;;;;;5059906;28;20052;-67
2023/08/05 13:01:38;;;;;;;3.33;2.50;;;20.70;99.90;;;;;;5053337;28;20508;-67
2023/08/05 13:04:10;;;;;;;3.35;2.38;;;20.80;99.90;;;;;;5072677;28;20063;-66
2023/08/05 13:06:42;;;;;;;2.55;2.33;;;20.80;99.90;;;;;;5073150;28;20123;-66
2023/08/05 13:09:14;;;;;;;3.58;2.38;;;20.90;99.90;;;;;;5057340;28;20041;-66